Joseph City, Arizona
Current Conditions -  °F | °C
As of 4:56 AM on Wednesday 22 Oct 2014 (Local Time) from KINW Reporting Station
Clear Clear  
Wind Chill: 41°   Ceiling: Unl
Heat Index: 45°   Visibility: 10mi
Dew Point: 42°   Wind: 7mph
Humidity: 90%   Direction: 200°SSW
Pressure: 30.12"   Gusts: NA
Location:  34.96°N, 110.34°W
Report Text: KINW 221156Z AUTO 20006KT 10SM CLR 07/06 A3012 RMK AO2 SLP155 70007 T00720056 10139 20067 53010
Loading
Personal Weather Stations






























Interactive Weather Map New forecast layout! Learn more

10-Day Weather Forecast

Advertisements
Track Severe Weather on mobile